sensor_id;sensor_type;location;lat;lon;timestamp;P1;durP1;ratioP1;P2;durP2;ratioP2
50341;SDS011;76053;42.682;23.286;2024-03-06T00:01:24;29.58;;;21.02;;
50341;SDS011;76053;42.682;23.286;2024-03-06T00:04:24;26.67;;;20.38;;
50341;SDS011;76053;42.682;23.286;2024-03-06T00:07:25;28.83;;;21.55;;
50341;SDS011;76053;42.682;23.286;2024-03-06T00:10:25;27.38;;;19.95;;
50341;SDS011;76053;42.682;23.286;2024-03-06T00:13:25;27.60;;;19.52;;
50341;SDS011;76053;42.682;23.286;2024-03-06T00:16:26;25.38;;;20.67;;
50341;SDS011;76053;42.682;23.286;2024-03-06T00:19:26;22.55;;;19.08;;
50341;SDS011;76053;42.682;23.286;2024-03-06T00:22:27;26.88;;;19.52;;
50341;SDS011;76053;42.682;23.286;2024-03-06T00:25:27;22.60;;;18.52;;
50341;SDS011;76053;42.682;23.286;2024-03-06T00:28:27;28.90;;;19.35;;
50341;SDS011;76053;42.682;23.286;2024-03-06T00:31:28;22.50;;;18.10;;
50341;SDS011;76053;42.682;23.286;2024-03-06T00:34:28;24.25;;;18.50;;
50341;SDS011;76053;42.682;23.286;2024-03-06T00:37:28;23.10;;;17.73;;
50341;SDS011;76053;42.682;23.286;2024-03-06T00:40:29;25.58;;;19.98;;
50341;SDS011;76053;42.682;23.286;2024-03-06T00:43:29;21.70;;;18.05;;
50341;SDS011;76053;42.682;23.286;2024-03-06T00:46:30;25.00;;;19.00;;
50341;SDS011;76053;42.682;23.286;2024-03-06T00:49:30;25.42;;;18.88;;
50341;SDS011;76053;42.682;23.286;2024-03-06T00:52:30;22.95;;;18.48;;
50341;SDS011;76053;42.682;23.286;2024-03-06T00:55:31;21.63;;;17.92;;
50341;SDS011;76053;42.682;23.286;2024-03-06T00:58:31;22.83;;;18.42;;
50341;SDS011;76053;42.682;23.286;2024-03-06T01:01:31;22.90;;;17.95;;
50341;SDS011;76053;42.682;23.286;2024-03-06T01:04:32;23.25;;;18.30;;
50341;SDS011;76053;42.682;23.286;2024-03-06T01:07:33;24.33;;;18.05;;
50341;SDS011;76053;42.682;23.286;2024-03-06T01:10:33;24.23;;;18.02;;
50341;SDS011;76053;42.682;23.286;2024-03-06T01:13:34;21.10;;;17.30;;
50341;SDS011;76053;42.682;23.286;2024-03-06T01:16:34;22.20;;;16.88;;
50341;SDS011;76053;42.682;23.286;2024-03-06T01:19:34;23.00;;;17.30;;
50341;SDS011;76053;42.682;23.286;2024-03-06T01:22:35;22.55;;;17.95;;
50341;SDS011;76053;42.682;23.286;2024-03-06T01:25:35;22.77;;;17.85;;
50341;SDS011;76053;42.682;23.286;2024-03-06T01:28:35;21.30;;;16.42;;
50341;SDS011;76053;42.682;23.286;2024-03-06T01:31:36;20.42;;;17.17;;
50341;SDS011;76053;42.682;23.286;2024-03-06T01:34:36;20.17;;;16.85;;
50341;SDS011;76053;42.682;23.286;2024-03-06T01:37:36;19.63;;;15.13;;
50341;SDS011;76053;42.682;23.286;2024-03-06T01:40:37;21.25;;;16.67;;
50341;SDS011;76053;42.682;23.286;2024-03-06T01:43:37;19.73;;;15.75;;
50341;SDS011;76053;42.682;23.286;2024-03-06T01:46:38;19.73;;;15.35;;
50341;SDS011;76053;42.682;23.286;2024-03-06T01:49:39;23.00;;;16.38;;
50341;SDS011;76053;42.682;23.286;2024-03-06T01:52:40;22.70;;;18.13;;
50341;SDS011;76053;42.682;23.286;2024-03-06T01:55:42;22.58;;;16.27;;
50341;SDS011;76053;42.682;23.286;2024-03-06T01:58:44;20.30;;;16.13;;
50341;SDS011;76053;42.682;23.286;2024-03-06T02:01:46;22.95;;;16.67;;
50341;SDS011;76053;42.682;23.286;2024-03-06T02:04:46;19.20;;;15.45;;
50341;SDS011;76053;42.682;23.286;2024-03-06T02:07:47;20.08;;;16.33;;
50341;SDS011;76053;42.682;23.286;2024-03-06T02:10:48;19.15;;;15.70;;
50341;SDS011;76053;42.682;23.286;2024-03-06T02:13:49;21.08;;;15.95;;
50341;SDS011;76053;42.682;23.286;2024-03-06T02:16:50;21.63;;;16.88;;
50341;SDS011;76053;42.682;23.286;2024-03-06T02:19:50;18.65;;;16.08;;
50341;SDS011;76053;42.682;23.286;2024-03-06T02:22:51;21.52;;;16.48;;
50341;SDS011;76053;42.682;23.286;2024-03-06T02:25:51;23.08;;;17.25;;
50341;SDS011;76053;42.682;23.286;2024-03-06T02:28:52;20.48;;;16.33;;
50341;SDS011;76053;42.682;23.286;2024-03-06T02:31:54;20.88;;;15.80;;
50341;SDS011;76053;42.682;23.286;2024-03-06T02:34:54;19.70;;;16.48;;
50341;SDS011;76053;42.682;23.286;2024-03-06T02:37:55;20.48;;;17.05;;
50341;SDS011;76053;42.682;23.286;2024-03-06T02:40:55;22.38;;;17.70;;
50341;SDS011;76053;42.682;23.286;2024-03-06T02:43:55;21.63;;;17.48;;
50341;SDS011;76053;42.682;23.286;2024-03-06T02:46:56;24.08;;;18.17;;
50341;SDS011;76053;42.682;23.286;2024-03-06T02:49:56;20.13;;;16.27;;
50341;SDS011;76053;42.682;23.286;2024-03-06T02:52:57;22.02;;;17.80;;
50341;SDS011;76053;42.682;23.286;2024-03-06T02:55:57;23.13;;;17.17;;
50341;SDS011;76053;42.682;23.286;2024-03-06T02:58:57;19.30;;;17.00;;
50341;SDS011;76053;42.682;23.286;2024-03-06T03:01:58;20.27;;;16.20;;
50341;SDS011;76053;42.682;23.286;2024-03-06T03:04:58;22.42;;;17.20;;
50341;SDS011;76053;42.682;23.286;2024-03-06T03:07:59;24.45;;;17.67;;
50341;SDS011;76053;42.682;23.286;2024-03-06T03:10:59;20.50;;;16.02;;
50341;SDS011;76053;42.682;23.286;2024-03-06T03:14:00;23.27;;;18.02;;
50341;SDS011;76053;42.682;23.286;2024-03-06T03:17:00;17.80;;;15.73;;
50341;SDS011;76053;42.682;23.286;2024-03-06T03:20:03;21.17;;;15.98;;
50341;SDS011;76053;42.682;23.286;2024-03-06T03:23:04;22.95;;;18.00;;
50341;SDS011;76053;42.682;23.286;2024-03-06T03:26:05;21.77;;;16.52;;
50341;SDS011;76053;42.682;23.286;2024-03-06T03:29:07;21.13;;;16.90;;
50341;SDS011;76053;42.682;23.286;2024-03-06T03:32:08;23.75;;;18.17;;
50341;SDS011;76053;42.682;23.286;2024-03-06T03:35:08;21.60;;;18.20;;
50341;SDS011;76053;42.682;23.286;2024-03-06T03:38:09;23.35;;;17.15;;
50341;SDS011;76053;42.682;23.286;2024-03-06T03:41:10;22.30;;;17.08;;
50341;SDS011;76053;42.682;23.286;2024-03-06T03:44:12;25.58;;;19.13;;
50341;SDS011;76053;42.682;23.286;2024-03-06T03:47:13;22.05;;;17.35;;
50341;SDS011;76053;42.682;23.286;2024-03-06T03:50:14;22.83;;;17.95;;
50341;SDS011;76053;42.682;23.286;2024-03-06T03:53:14;21.65;;;16.83;;
50341;SDS011;76053;42.682;23.286;2024-03-06T03:56:14;25.48;;;19.63;;
50341;SDS011;76053;42.682;23.286;2024-03-06T03:59:15;23.05;;;16.90;;
50341;SDS011;76053;42.682;23.286;2024-03-06T04:02:15;24.83;;;18.08;;
50341;SDS011;76053;42.682;23.286;2024-03-06T04:05:16;22.27;;;17.35;;
50341;SDS011;76053;42.682;23.286;2024-03-06T04:08:16;21.90;;;18.08;;
50341;SDS011;76053;42.682;23.286;2024-03-06T04:11:17;19.63;;;16.77;;
50341;SDS011;76053;42.682;23.286;2024-03-06T04:14:17;21.77;;;17.65;;
50341;SDS011;76053;42.682;23.286;2024-03-06T04:17:18;22.92;;;18.05;;
50341;SDS011;76053;42.682;23.286;2024-03-06T04:20:18;23.25;;;18.67;;
50341;SDS011;76053;42.682;23.286;2024-03-06T04:23:19;25.30;;;19.55;;
50341;SDS011;76053;42.682;23.286;2024-03-06T04:26:19;24.67;;;18.65;;
50341;SDS011;76053;42.682;23.286;2024-03-06T04:29:20;24.88;;;18.88;;
50341;SDS011;76053;42.682;23.286;2024-03-06T04:32:20;23.02;;;18.80;;
50341;SDS011;76053;42.682;23.286;2024-03-06T04:35:20;24.33;;;17.88;;
50341;SDS011;76053;42.682;23.286;2024-03-06T04:38:21;24.48;;;18.35;;
50341;SDS011;76053;42.682;23.286;2024-03-06T04:41:21;24.05;;;18.50;;
50341;SDS011;76053;42.682;23.286;2024-03-06T04:44:21;29.70;;;18.77;;
50341;SDS011;76053;42.682;23.286;2024-03-06T04:47:23;24.25;;;19.55;;
50341;SDS011;76053;42.682;23.286;2024-03-06T04:50:24;23.13;;;19.33;;
50341;SDS011;76053;42.682;23.286;2024-03-06T04:53:25;26.30;;;19.30;;
50341;SDS011;76053;42.682;23.286;2024-03-06T04:56:25;26.65;;;19.60;;
50341;SDS011;76053;42.682;23.286;2024-03-06T04:59:25;24.90;;;19.10;;
50341;SDS011;76053;42.682;23.286;2024-03-06T05:02:26;24.67;;;18.80;;
50341;SDS011;76053;42.682;23.286;2024-03-06T05:05:26;24.00;;;19.20;;
50341;SDS011;76053;42.682;23.286;2024-03-06T05:08:27;25.13;;;17.77;;
50341;SDS011;76053;42.682;23.286;2024-03-06T05:11:27;22.92;;;18.15;;
50341;SDS011;76053;42.682;23.286;2024-03-06T05:14:28;21.98;;;17.70;;
50341;SDS011;76053;42.682;23.286;2024-03-06T05:17:28;24.92;;;17.75;;
50341;SDS011;76053;42.682;23.286;2024-03-06T05:20:28;24.48;;;17.30;;
50341;SDS011;76053;42.682;23.286;2024-03-06T05:23:29;20.92;;;17.33;;
50341;SDS011;76053;42.682;23.286;2024-03-06T05:26:29;26.05;;;20.17;;
50341;SDS011;76053;42.682;23.286;2024-03-06T05:29:30;24.52;;;17.73;;
50341;SDS011;76053;42.682;23.286;2024-03-06T05:32:30;23.60;;;18.27;;
50341;SDS011;76053;42.682;23.286;2024-03-06T05:35:30;26.00;;;20.00;;
50341;SDS011;76053;42.682;23.286;2024-03-06T05:38:31;26.50;;;20.00;;
50341;SDS011;76053;42.682;23.286;2024-03-06T05:41:31;25.95;;;19.75;;
50341;SDS011;76053;42.682;23.286;2024-03-06T05:44:32;25.63;;;19.50;;
50341;SDS011;76053;42.682;23.286;2024-03-06T05:47:32;24.52;;;18.73;;
50341;SDS011;76053;42.682;23.286;2024-03-06T05:50:33;27.25;;;19.65;;
50341;SDS011;76053;42.682;23.286;2024-03-06T05:53:39;27.92;;;19.73;;
50341;SDS011;76053;42.682;23.286;2024-03-06T05:56:39;24.92;;;18.65;;
50341;SDS011;76053;42.682;23.286;2024-03-06T05:59:40;21.02;;;17.52;;
50341;SDS011;76053;42.682;23.286;2024-03-06T06:02:40;23.40;;;18.13;;
50341;SDS011;76053;42.682;23.286;2024-03-06T06:05:40;25.02;;;18.85;;
50341;SDS011;76053;42.682;23.286;2024-03-06T06:08:41;26.38;;;19.38;;
50341;SDS011;76053;42.682;23.286;2024-03-06T06:11:42;24.40;;;18.52;;
50341;SDS011;76053;42.682;23.286;2024-03-06T06:14:42;24.13;;;19.52;;
50341;SDS011;76053;42.682;23.286;2024-03-06T06:17:43;26.15;;;18.65;;
50341;SDS011;76053;42.682;23.286;2024-03-06T06:20:43;24.15;;;19.05;;
50341;SDS011;76053;42.682;23.286;2024-03-06T06:23:44;28.52;;;20.25;;
50341;SDS011;76053;42.682;23.286;2024-03-06T06:26:44;25.80;;;19.25;;
50341;SDS011;76053;42.682;23.286;2024-03-06T06:29:45;24.65;;;19.23;;
50341;SDS011;76053;42.682;23.286;2024-03-06T06:32:45;27.35;;;20.08;;
50341;SDS011;76053;42.682;23.286;2024-03-06T06:35:46;26.48;;;20.27;;
50341;SDS011;76053;42.682;23.286;2024-03-06T06:38:47;29.73;;;20.20;;
50341;SDS011;76053;42.682;23.286;2024-03-06T06:41:48;25.77;;;20.73;;
50341;SDS011;76053;42.682;23.286;2024-03-06T06:44:49;29.00;;;21.00;;
50341;SDS011;76053;42.682;23.286;2024-03-06T06:47:49;25.65;;;20.17;;
50341;SDS011;76053;42.682;23.286;2024-03-06T06:50:51;29.92;;;22.15;;
50341;SDS011;76053;42.682;23.286;2024-03-06T06:53:51;26.00;;;21.10;;
50341;SDS011;76053;42.682;23.286;2024-03-06T06:56:52;28.40;;;21.73;;
50341;SDS011;76053;42.682;23.286;2024-03-06T06:59:52;32.38;;;22.35;;
50341;SDS011;76053;42.682;23.286;2024-03-06T07:02:52;30.42;;;21.92;;
50341;SDS011;76053;42.682;23.286;2024-03-06T07:05:53;32.40;;;23.30;;
50341;SDS011;76053;42.682;23.286;2024-03-06T07:08:53;31.92;;;22.98;;
50341;SDS011;76053;42.682;23.286;2024-03-06T07:11:53;34.92;;;23.17;;
50341;SDS011;76053;42.682;23.286;2024-03-06T07:14:54;28.23;;;22.10;;
50341;SDS011;76053;42.682;23.286;2024-03-06T07:17:54;30.42;;;22.90;;
50341;SDS011;76053;42.682;23.286;2024-03-06T07:20:55;33.40;;;23.38;;
50341;SDS011;76053;42.682;23.286;2024-03-06T07:23:55;30.13;;;22.25;;
50341;SDS011;76053;42.682;23.286;2024-03-06T07:26:55;32.08;;;24.38;;
50341;SDS011;76053;42.682;23.286;2024-03-06T07:29:56;29.30;;;22.92;;
50341;SDS011;76053;42.682;23.286;2024-03-06T07:32:56;31.83;;;23.77;;
50341;SDS011;76053;42.682;23.286;2024-03-06T07:35:57;32.92;;;22.88;;
50341;SDS011;76053;42.682;23.286;2024-03-06T07:38:57;31.98;;;23.42;;
50341;SDS011;76053;42.682;23.286;2024-03-06T07:41:58;33.30;;;22.70;;
50341;SDS011;76053;42.682;23.286;2024-03-06T07:44:58;36.15;;;23.60;;
50341;SDS011;76053;42.682;23.286;2024-03-06T07:47:58;32.50;;;23.45;;
50341;SDS011;76053;42.682;23.286;2024-03-06T07:50:59;35.20;;;24.45;;
50341;SDS011;76053;42.682;23.286;2024-03-06T07:53:59;33.63;;;24.67;;
50341;SDS011;76053;42.682;23.286;2024-03-06T07:57:00;33.22;;;24.33;;
50341;SDS011;76053;42.682;23.286;2024-03-06T08:00:01;35.08;;;24.08;;
50341;SDS011;76053;42.682;23.286;2024-03-06T08:03:02;30.10;;;24.13;;
50341;SDS011;76053;42.682;23.286;2024-03-06T08:06:03;30.88;;;22.67;;
50341;SDS011;76053;42.682;23.286;2024-03-06T08:09:04;32.42;;;22.77;;
50341;SDS011;76053;42.682;23.286;2024-03-06T08:12:05;32.55;;;24.13;;
50341;SDS011;76053;42.682;23.286;2024-03-06T08:15:06;32.85;;;24.40;;
50341;SDS011;76053;42.682;23.286;2024-03-06T08:18:08;33.17;;;24.10;;
50341;SDS011;76053;42.682;23.286;2024-03-06T08:21:08;29.77;;;23.70;;
50341;SDS011;76053;42.682;23.286;2024-03-06T08:24:09;34.72;;;24.38;;
50341;SDS011;76053;42.682;23.286;2024-03-06T08:27:09;35.30;;;25.08;;
50341;SDS011;76053;42.682;23.286;2024-03-06T08:30:10;33.20;;;24.38;;
50341;SDS011;76053;42.682;23.286;2024-03-06T08:33:10;36.30;;;25.08;;
50341;SDS011;76053;42.682;23.286;2024-03-06T08:36:11;34.47;;;25.30;;
50341;SDS011;76053;42.682;23.286;2024-03-06T08:39:12;32.80;;;24.27;;
50341;SDS011;76053;42.682;23.286;2024-03-06T08:42:12;33.20;;;24.40;;
50341;SDS011;76053;42.682;23.286;2024-03-06T08:45:12;31.70;;;24.05;;
50341;SDS011;76053;42.682;23.286;2024-03-06T08:48:13;30.40;;;23.08;;
50341;SDS011;76053;42.682;23.286;2024-03-06T08:51:13;33.28;;;23.63;;
50341;SDS011;76053;42.682;23.286;2024-03-06T08:54:14;31.15;;;25.17;;
50341;SDS011;76053;42.682;23.286;2024-03-06T08:57:14;33.47;;;25.08;;
50341;SDS011;76053;42.682;23.286;2024-03-06T09:00:15;38.20;;;25.48;;
50341;SDS011;76053;42.682;23.286;2024-03-06T09:03:15;30.60;;;23.23;;
50341;SDS011;76053;42.682;23.286;2024-03-06T09:06:16;34.67;;;24.00;;
50341;SDS011;76053;42.682;23.286;2024-03-06T09:09:16;33.60;;;23.98;;
50341;SDS011;76053;42.682;23.286;2024-03-06T09:12:17;30.85;;;22.90;;
50341;SDS011;76053;42.682;23.286;2024-03-06T09:15:17;32.67;;;25.13;;
50341;SDS011;76053;42.682;23.286;2024-03-06T09:18:18;34.15;;;24.48;;
50341;SDS011;76053;42.682;23.286;2024-03-06T09:21:18;30.05;;;23.48;;
50341;SDS011;76053;42.682;23.286;2024-03-06T09:24:20;31.40;;;22.52;;
50341;SDS011;76053;42.682;23.286;2024-03-06T09:27:21;32.22;;;24.52;;
50341;SDS011;76053;42.682;23.286;2024-03-06T09:30:21;37.88;;;25.27;;
50341;SDS011;76053;42.682;23.286;2024-03-06T09:33:22;30.70;;;23.08;;
50341;SDS011;76053;42.682;23.286;2024-03-06T09:36:23;34.13;;;23.25;;
50341;SDS011;76053;42.682;23.286;2024-03-06T09:39:24;31.92;;;23.60;;
50341;SDS011;76053;42.682;23.286;2024-03-06T09:42:24;32.55;;;25.48;;
50341;SDS011;76053;42.682;23.286;2024-03-06T09:45:25;32.85;;;25.23;;
50341;SDS011;76053;42.682;23.286;2024-03-06T09:48:25;30.42;;;23.85;;
50341;SDS011;76053;42.682;23.286;2024-03-06T09:51:26;32.83;;;27.27;;
50341;SDS011;76053;42.682;23.286;2024-03-06T09:54:27;33.60;;;25.55;;
50341;SDS011;76053;42.682;23.286;2024-03-06T09:57:27;35.20;;;26.73;;
50341;SDS011;76053;42.682;23.286;2024-03-06T10:00:28;32.80;;;24.80;;
50341;SDS011;76053;42.682;23.286;2024-03-06T10:03:28;30.15;;;24.05;;
50341;SDS011;76053;42.682;23.286;2024-03-06T10:06:28;34.47;;;25.80;;
50341;SDS011;76053;42.682;23.286;2024-03-06T10:09:29;29.88;;;23.60;;
50341;SDS011;76053;42.682;23.286;2024-03-06T10:12:29;30.17;;;23.00;;
50341;SDS011;76053;42.682;23.286;2024-03-06T10:15:30;30.58;;;21.00;;
50341;SDS011;76053;42.682;23.286;2024-03-06T10:18:30;27.42;;;21.25;;
50341;SDS011;76053;42.682;23.286;2024-03-06T10:21:31;26.90;;;19.70;;
50341;SDS011;76053;42.682;23.286;2024-03-06T10:24:32;23.27;;;18.25;;
50341;SDS011;76053;42.682;23.286;2024-03-06T10:27:34;21.88;;;16.33;;
50341;SDS011;76053;42.682;23.286;2024-03-06T10:30:35;23.63;;;17.85;;
50341;SDS011;76053;42.682;23.286;2024-03-06T10:33:37;22.52;;;17.25;;
50341;SDS011;76053;42.682;23.286;2024-03-06T10:36:37;27.15;;;18.10;;
50341;SDS011;76053;42.682;23.286;2024-03-06T10:39:41;27.25;;;18.35;;
50341;SDS011;76053;42.682;23.286;2024-03-06T10:42:42;24.88;;;18.90;;
50341;SDS011;76053;42.682;23.286;2024-03-06T10:45:51;22.70;;;18.08;;
50341;SDS011;76053;42.682;23.286;2024-03-06T10:49:00;24.23;;;17.55;;
50341;SDS011;76053;42.682;23.286;2024-03-06T10:52:02;27.70;;;17.95;;
50341;SDS011;76053;42.682;23.286;2024-03-06T10:55:04;24.40;;;18.13;;
50341;SDS011;76053;42.682;23.286;2024-03-06T10:58:08;23.40;;;16.48;;
50341;SDS011;76053;42.682;23.286;2024-03-06T11:01:08;27.33;;;17.90;;
50341;SDS011;76053;42.682;23.286;2024-03-06T11:04:09;19.70;;;16.20;;
50341;SDS011;76053;42.682;23.286;2024-03-06T11:07:09;21.52;;;17.17;;
50341;SDS011;76053;42.682;23.286;2024-03-06T11:10:10;25.75;;;17.35;;
50341;SDS011;76053;42.682;23.286;2024-03-06T11:16:26;21.48;;;16.88;;
50341;SDS011;76053;42.682;23.286;2024-03-06T11:19:28;20.45;;;15.07;;
50341;SDS011;76053;42.682;23.286;2024-03-06T11:26:04;19.98;;;14.65;;
50341;SDS011;76053;42.682;23.286;2024-03-06T11:29:06;18.90;;;13.85;;
50341;SDS011;76053;42.682;23.286;2024-03-06T11:32:07;19.88;;;16.35;;
50341;SDS011;76053;42.682;23.286;2024-03-06T11:35:08;20.20;;;15.90;;
50341;SDS011;76053;42.682;23.286;2024-03-06T11:38:08;20.50;;;15.60;;
50341;SDS011;76053;42.682;23.286;2024-03-06T11:41:09;23.05;;;16.90;;
50341;SDS011;76053;42.682;23.286;2024-03-06T11:44:12;21.27;;;16.08;;
50341;SDS011;76053;42.682;23.286;2024-03-06T11:47:15;26.65;;;18.10;;
50341;SDS011;76053;42.682;23.286;2024-03-06T11:50:15;21.67;;;16.60;;
50341;SDS011;76053;42.682;23.286;2024-03-06T11:53:16;21.27;;;15.65;;
50341;SDS011;76053;42.682;23.286;2024-03-06T11:56:18;18.70;;;15.20;;
50341;SDS011;76053;42.682;23.286;2024-03-06T11:59:22;16.33;;;12.00;;
50341;SDS011;76053;42.682;23.286;2024-03-06T12:02:23;11.43;;;9.98;;
50341;SDS011;76053;42.682;23.286;2024-03-06T12:05:24;10.95;;;9.02;;
50341;SDS011;76053;42.682;23.286;2024-03-06T12:08:24;9.45;;;8.45;;
50341;SDS011;76053;42.682;23.286;2024-03-06T12:11:25;11.82;;;9.27;;
50341;SDS011;76053;42.682;23.286;2024-03-06T12:14:25;10.77;;;9.60;;
50341;SDS011;76053;42.682;23.286;2024-03-06T12:17:26;8.75;;;7.85;;
50341;SDS011;76053;42.682;23.286;2024-03-06T12:20:27;9.40;;;8.48;;
50341;SDS011;76053;42.682;23.286;2024-03-06T12:23:27;10.18;;;8.73;;
50341;SDS011;76053;42.682;23.286;2024-03-06T12:26:28;9.48;;;8.50;;
50341;SDS011;76053;42.682;23.286;2024-03-06T12:29:29;10.68;;;9.13;;
50341;SDS011;76053;42.682;23.286;2024-03-06T12:32:30;10.65;;;8.23;;
50341;SDS011;76053;42.682;23.286;2024-03-06T12:35:31;7.93;;;7.03;;
50341;SDS011;76053;42.682;23.286;2024-03-06T12:38:32;11.90;;;8.27;;
50341;SDS011;76053;42.682;23.286;2024-03-06T12:41:33;12.07;;;8.43;;
50341;SDS011;76053;42.682;23.286;2024-03-06T12:44:33;9.48;;;7.97;;
50341;SDS011;76053;42.682;23.286;2024-03-06T12:47:34;8.10;;;7.03;;
50341;SDS011;76053;42.682;23.286;2024-03-06T12:50:34;10.30;;;7.88;;
50341;SDS011;76053;42.682;23.286;2024-03-06T12:53:34;8.32;;;7.63;;
50341;SDS011;76053;42.682;23.286;2024-03-06T12:56:35;10.02;;;7.22;;
50341;SDS011;76053;42.682;23.286;2024-03-06T12:59:36;9.52;;;8.13;;
50341;SDS011;76053;42.682;23.286;2024-03-06T13:02:36;8.02;;;7.25;;
50341;SDS011;76053;42.682;23.286;2024-03-06T13:05:36;7.20;;;6.30;;
50341;SDS011;76053;42.682;23.286;2024-03-06T13:08:37;9.80;;;6.90;;
50341;SDS011;76053;42.682;23.286;2024-03-06T13:11:37;9.60;;;7.18;;
50341;SDS011;76053;42.682;23.286;2024-03-06T13:14:38;9.05;;;6.63;;
50341;SDS011;76053;42.682;23.286;2024-03-06T13:17:38;8.73;;;6.15;;
50341;SDS011;76053;42.682;23.286;2024-03-06T13:20:38;8.18;;;6.60;;
50341;SDS011;76053;42.682;23.286;2024-03-06T13:23:39;9.60;;;6.00;;
50341;SDS011;76053;42.682;23.286;2024-03-06T13:26:39;6.20;;;5.53;;
50341;SDS011;76053;42.682;23.286;2024-03-06T13:29:40;6.88;;;6.18;;
50341;SDS011;76053;42.682;23.286;2024-03-06T13:32:40;6.32;;;5.13;;
50341;SDS011;76053;42.682;23.286;2024-03-06T13:35:41;6.75;;;6.05;;
50341;SDS011;76053;42.682;23.286;2024-03-06T13:38:41;7.60;;;5.78;;
50341;SDS011;76053;42.682;23.286;2024-03-06T13:41:42;7.30;;;5.93;;
50341;SDS011;76053;42.682;23.286;2024-03-06T13:44:42;6.00;;;5.32;;
50341;SDS011;76053;42.682;23.286;2024-03-06T13:47:43;7.68;;;6.05;;
50341;SDS011;76053;42.682;23.286;2024-03-06T13:50:45;7.00;;;5.57;;
50341;SDS011;76053;42.682;23.286;2024-03-06T13:53:45;7.07;;;5.57;;
50341;SDS011;76053;42.682;23.286;2024-03-06T13:56:46;7.78;;;6.40;;
50341;SDS011;76053;42.682;23.286;2024-03-06T13:59:46;7.13;;;6.07;;
50341;SDS011;76053;42.682;23.286;2024-03-06T14:02:47;8.60;;;7.20;;
50341;SDS011;76053;42.682;23.286;2024-03-06T14:05:47;9.23;;;7.10;;
50341;SDS011;76053;42.682;23.286;2024-03-06T14:08:47;8.82;;;7.50;;
50341;SDS011;76053;42.682;23.286;2024-03-06T14:11:48;9.75;;;7.15;;
50341;SDS011;76053;42.682;23.286;2024-03-06T14:14:48;10.75;;;8.75;;
50341;SDS011;76053;42.682;23.286;2024-03-06T14:17:49;11.48;;;8.60;;
50341;SDS011;76053;42.682;23.286;2024-03-06T14:20:49;10.38;;;9.10;;
50341;SDS011;76053;42.682;23.286;2024-03-06T14:23:49;15.00;;;10.65;;
50341;SDS011;76053;42.682;23.286;2024-03-06T14:26:50;11.68;;;9.98;;
50341;SDS011;76053;42.682;23.286;2024-03-06T14:29:50;10.38;;;9.32;;
50341;SDS011;76053;42.682;23.286;2024-03-06T14:32:51;11.25;;;9.32;;
50341;SDS011;76053;42.682;23.286;2024-03-06T14:35:51;12.50;;;10.02;;
50341;SDS011;76053;42.682;23.286;2024-03-06T14:38:52;10.75;;;8.48;;
50341;SDS011;76053;42.682;23.286;2024-03-06T14:41:52;10.43;;;9.38;;
50341;SDS011;76053;42.682;23.286;2024-03-06T14:44:53;10.02;;;8.52;;
50341;SDS011;76053;42.682;23.286;2024-03-06T14:47:53;11.57;;;9.35;;
50341;SDS011;76053;42.682;23.286;2024-03-06T14:50:53;11.73;;;9.10;;
50341;SDS011;76053;42.682;23.286;2024-03-06T14:53:54;11.65;;;9.63;;
50341;SDS011;76053;42.682;23.286;2024-03-06T14:56:55;11.13;;;9.60;;
50341;SDS011;76053;42.682;23.286;2024-03-06T14:59:55;13.73;;;9.88;;
50341;SDS011;76053;42.682;23.286;2024-03-06T15:02:56;13.13;;;11.05;;
50341;SDS011;76053;42.682;23.286;2024-03-06T15:05:56;12.68;;;9.57;;
50341;SDS011;76053;42.682;23.286;2024-03-06T15:08:57;12.30;;;9.75;;
50341;SDS011;76053;42.682;23.286;2024-03-06T15:11:57;11.60;;;10.43;;
50341;SDS011;76053;42.682;23.286;2024-03-06T15:14:57;13.05;;;10.38;;
50341;SDS011;76053;42.682;23.286;2024-03-06T15:17:58;11.98;;;10.73;;
50341;SDS011;76053;42.682;23.286;2024-03-06T15:20:58;11.05;;;9.52;;
50341;SDS011;76053;42.682;23.286;2024-03-06T15:23:58;10.95;;;9.57;;
50341;SDS011;76053;42.682;23.286;2024-03-06T15:26:59;10.50;;;9.40;;
50341;SDS011;76053;42.682;23.286;2024-03-06T15:29:59;13.88;;;10.60;;
50341;SDS011;76053;42.682;23.286;2024-03-06T15:33:00;12.73;;;10.70;;
50341;SDS011;76053;42.682;23.286;2024-03-06T15:36:01;11.13;;;9.88;;
50341;SDS011;76053;42.682;23.286;2024-03-06T15:39:01;10.63;;;9.55;;
50341;SDS011;76053;42.682;23.286;2024-03-06T15:42:02;12.82;;;10.13;;
50341;SDS011;76053;42.682;23.286;2024-03-06T15:45:02;13.55;;;10.13;;
50341;SDS011;76053;42.682;23.286;2024-03-06T15:48:03;14.15;;;10.35;;
50341;SDS011;76053;42.682;23.286;2024-03-06T15:51:04;12.75;;;9.25;;
50341;SDS011;76053;42.682;23.286;2024-03-06T15:54:04;13.32;;;8.93;;
50341;SDS011;76053;42.682;23.286;2024-03-06T15:57:05;11.50;;;9.27;;
50341;SDS011;76053;42.682;23.286;2024-03-06T16:00:06;8.65;;;7.75;;
50341;SDS011;76053;42.682;23.286;2024-03-06T16:03:07;9.70;;;8.32;;
50341;SDS011;76053;42.682;23.286;2024-03-06T16:06:07;9.95;;;8.68;;
50341;SDS011;76053;42.682;23.286;2024-03-06T16:09:08;9.88;;;8.88;;
50341;SDS011;76053;42.682;23.286;2024-03-06T16:12:08;9.32;;;7.85;;
50341;SDS011;76053;42.682;23.286;2024-03-06T16:15:09;8.98;;;8.07;;
50341;SDS011;76053;42.682;23.286;2024-03-06T16:18:09;8.40;;;7.50;;
50341;SDS011;76053;42.682;23.286;2024-03-06T16:21:09;11.48;;;8.93;;
50341;SDS011;76053;42.682;23.286;2024-03-06T16:24:10;9.75;;;8.13;;
50341;SDS011;76053;42.682;23.286;2024-03-06T16:27:10;9.77;;;8.48;;
50341;SDS011;76053;42.682;23.286;2024-03-06T16:30:11;10.05;;;7.90;;
50341;SDS011;76053;42.682;23.286;2024-03-06T16:33:12;10.13;;;8.98;;
50341;SDS011;76053;42.682;23.286;2024-03-06T16:36:12;12.70;;;11.05;;
50341;SDS011;76053;42.682;23.286;2024-03-06T16:39:13;11.90;;;10.63;;
50341;SDS011;76053;42.682;23.286;2024-03-06T16:42:13;14.30;;;10.52;;
50341;SDS011;76053;42.682;23.286;2024-03-06T16:45:13;12.43;;;11.15;;
50341;SDS011;76053;42.682;23.286;2024-03-06T16:48:14;14.65;;;11.77;;
50341;SDS011;76053;42.682;23.286;2024-03-06T16:51:18;13.05;;;10.90;;
50341;SDS011;76053;42.682;23.286;2024-03-06T16:54:18;14.60;;;11.52;;
50341;SDS011;76053;42.682;23.286;2024-03-06T16:57:19;12.75;;;10.75;;
50341;SDS011;76053;42.682;23.286;2024-03-06T17:00:19;13.52;;;12.13;;
50341;SDS011;76053;42.682;23.286;2024-03-06T17:03:19;13.40;;;11.88;;
50341;SDS011;76053;42.682;23.286;2024-03-06T17:06:20;13.65;;;12.25;;
50341;SDS011;76053;42.682;23.286;2024-03-06T17:09:20;14.70;;;12.13;;
50341;SDS011;76053;42.682;23.286;2024-03-06T17:12:20;12.75;;;11.38;;
50341;SDS011;76053;42.682;23.286;2024-03-06T17:15:21;13.35;;;10.85;;
50341;SDS011;76053;42.682;23.286;2024-03-06T17:18:21;13.23;;;11.15;;
50341;SDS011;76053;42.682;23.286;2024-03-06T17:21:22;13.02;;;11.73;;
50341;SDS011;76053;42.682;23.286;2024-03-06T17:24:22;13.68;;;11.88;;
50341;SDS011;76053;42.682;23.286;2024-03-06T17:27:22;13.88;;;12.48;;
50341;SDS011;76053;42.682;23.286;2024-03-06T17:30:23;12.52;;;11.27;;
50341;SDS011;76053;42.682;23.286;2024-03-06T17:33:23;14.20;;;12.75;;